sensor_id;sensor_type;location;lat;lon;timestamp;P1;durP1;ratioP1;P2;durP2;ratioP2
20185;SDS011;10252;48.792;8.582;2023-04-01T00:03:42;3.20;;;0.90;;
20185;SDS011;10252;48.792;8.582;2023-04-01T00:08:43;6.40;;;1.98;;
20185;SDS011;10252;48.792;8.582;2023-04-01T00:13:44;2.03;;;0.70;;
20185;SDS011;10252;48.792;8.582;2023-04-01T00:18:46;5.80;;;0.93;;
20185;SDS011;10252;48.792;8.582;2023-04-01T00:23:47;3.15;;;0.88;;
20185;SDS011;10252;48.792;8.582;2023-04-01T00:28:48;2.58;;;0.90;;
20185;SDS011;10252;48.792;8.582;2023-04-01T00:33:51;3.10;;;0.73;;
20185;SDS011;10252;48.792;8.582;2023-04-01T00:38:52;3.25;;;0.68;;
20185;SDS011;10252;48.792;8.582;2023-04-01T00:44:11;1.50;;;0.60;;
20185;SDS011;10252;48.792;8.582;2023-04-01T00:49:14;3.85;;;0.93;;
20185;SDS011;10252;48.792;8.582;2023-04-01T00:54:16;2.97;;;0.75;;
20185;SDS011;10252;48.792;8.582;2023-04-01T00:59:20;2.13;;;0.68;;
20185;SDS011;10252;48.792;8.582;2023-04-01T01:04:41;1.50;;;0.50;;
20185;SDS011;10252;48.792;8.582;2023-04-01T01:09:45;2.75;;;0.50;;
20185;SDS011;10252;48.792;8.582;2023-04-01T01:19:52;1.38;;;0.50;;
20185;SDS011;10252;48.792;8.582;2023-04-01T01:40:20;2.05;;;0.52;;
20185;SDS011;10252;48.792;8.582;2023-04-01T01:45:23;2.72;;;1.23;;
20185;SDS011;10252;48.792;8.582;2023-04-01T01:50:25;1.60;;;0.55;;
20185;SDS011;10252;48.792;8.582;2023-04-01T01:55:29;2.70;;;0.47;;
20185;SDS011;10252;48.792;8.582;2023-04-01T02:00:31;2.65;;;0.60;;
20185;SDS011;10252;48.792;8.582;2023-04-01T02:05:33;3.42;;;0.55;;
20185;SDS011;10252;48.792;8.582;2023-04-01T02:10:41;1.40;;;0.40;;
20185;SDS011;10252;48.792;8.582;2023-04-01T02:15:44;1.42;;;0.38;;
20185;SDS011;10252;48.792;8.582;2023-04-01T02:20:47;2.72;;;0.70;;
20185;SDS011;10252;48.792;8.582;2023-04-01T02:25:49;0.63;;;0.38;;
20185;SDS011;10252;48.792;8.582;2023-04-01T02:30:52;4.30;;;0.70;;
20185;SDS011;10252;48.792;8.582;2023-04-01T02:35:53;2.05;;;0.52;;
20185;SDS011;10252;48.792;8.582;2023-04-01T02:40:58;0.93;;;0.32;;
20185;SDS011;10252;48.792;8.582;2023-04-01T02:46:00;2.20;;;0.68;;
20185;SDS011;10252;48.792;8.582;2023-04-01T02:51:01;2.63;;;0.60;;
20185;SDS011;10252;48.792;8.582;2023-04-01T02:56:03;2.38;;;0.65;;
20185;SDS011;10252;48.792;8.582;2023-04-01T03:01:04;1.40;;;0.40;;
20185;SDS011;10252;48.792;8.582;2023-04-01T03:06:09;0.73;;;0.43;;
20185;SDS011;10252;48.792;8.582;2023-04-01T03:11:10;4.47;;;0.50;;
20185;SDS011;10252;48.792;8.582;2023-04-01T03:16:13;3.08;;;0.68;;
20185;SDS011;10252;48.792;8.582;2023-04-01T03:21:19;4.68;;;1.00;;
20185;SDS011;10252;48.792;8.582;2023-04-01T03:26:20;2.90;;;0.90;;
20185;SDS011;10252;48.792;8.582;2023-04-01T03:31:21;3.90;;;0.60;;
20185;SDS011;10252;48.792;8.582;2023-04-01T03:36:27;1.75;;;0.55;;
20185;SDS011;10252;48.792;8.582;2023-04-01T03:41:28;2.13;;;0.40;;
20185;SDS011;10252;48.792;8.582;2023-04-01T03:46:29;2.72;;;0.68;;
20185;SDS011;10252;48.792;8.582;2023-04-01T03:51:30;2.60;;;0.55;;
20185;SDS011;10252;48.792;8.582;2023-04-01T03:56:31;5.90;;;0.68;;
20185;SDS011;10252;48.792;8.582;2023-04-01T04:01:33;2.40;;;0.60;;
20185;SDS011;10252;48.792;8.582;2023-04-01T04:06:34;4.30;;;0.75;;
20185;SDS011;10252;48.792;8.582;2023-04-01T04:11:35;2.97;;;0.80;;
20185;SDS011;10252;48.792;8.582;2023-04-01T04:16:37;0.88;;;0.40;;
20185;SDS011;10252;48.792;8.582;2023-04-01T04:21:39;5.05;;;0.73;;
20185;SDS011;10252;48.792;8.582;2023-04-01T04:26:41;1.27;;;0.82;;
20185;SDS011;10252;48.792;8.582;2023-04-01T04:31:42;4.13;;;0.60;;
20185;SDS011;10252;48.792;8.582;2023-04-01T04:36:43;5.13;;;0.75;;
20185;SDS011;10252;48.792;8.582;2023-04-01T04:41:45;1.63;;;0.52;;
20185;SDS011;10252;48.792;8.582;2023-04-01T04:46:46;2.83;;;0.63;;
20185;SDS011;10252;48.792;8.582;2023-04-01T04:51:49;4.28;;;0.70;;
20185;SDS011;10252;48.792;8.582;2023-04-01T04:56:53;4.45;;;0.70;;
20185;SDS011;10252;48.792;8.582;2023-04-01T05:01:56;2.13;;;0.80;;
20185;SDS011;10252;48.792;8.582;2023-04-01T05:06:57;2.35;;;0.77;;
20185;SDS011;10252;48.792;8.582;2023-04-01T05:11:58;2.25;;;0.65;;
20185;SDS011;10252;48.792;8.582;2023-04-01T05:17:01;1.60;;;0.60;;
20185;SDS011;10252;48.792;8.582;2023-04-01T05:22:03;3.33;;;0.50;;
20185;SDS011;10252;48.792;8.582;2023-04-01T05:27:04;2.70;;;0.52;;
20185;SDS011;10252;48.792;8.582;2023-04-01T05:32:06;2.03;;;0.57;;
20185;SDS011;10252;48.792;8.582;2023-04-01T05:37:07;1.42;;;0.40;;
20185;SDS011;10252;48.792;8.582;2023-04-01T05:42:08;3.03;;;0.65;;
20185;SDS011;10252;48.792;8.582;2023-04-01T05:47:10;1.70;;;0.52;;
20185;SDS011;10252;48.792;8.582;2023-04-01T05:52:11;3.13;;;0.80;;
20185;SDS011;10252;48.792;8.582;2023-04-01T05:57:12;0.57;;;0.45;;
20185;SDS011;10252;48.792;8.582;2023-04-01T06:02:15;1.70;;;0.57;;
20185;SDS011;10252;48.792;8.582;2023-04-01T06:07:17;1.27;;;0.50;;
20185;SDS011;10252;48.792;8.582;2023-04-01T07:00:36;1.23;;;0.40;;
20185;SDS011;10252;48.792;8.582;2023-04-01T07:05:39;2.25;;;0.60;;
20185;SDS011;10252;48.792;8.582;2023-04-01T07:10:46;1.00;;;0.20;;
20185;SDS011;10252;48.792;8.582;2023-04-01T07:16:21;1.45;;;0.68;;
20185;SDS011;10252;48.792;8.582;2023-04-01T07:21:28;4.18;;;0.93;;
20185;SDS011;10252;48.792;8.582;2023-04-01T07:26:32;0.47;;;0.40;;
20185;SDS011;10252;48.792;8.582;2023-04-01T07:36:45;1.92;;;0.75;;
20185;SDS011;10252;48.792;8.582;2023-04-01T07:41:54;1.27;;;0.30;;
20185;SDS011;10252;48.792;8.582;2023-04-01T08:29:33;0.73;;;0.20;;
20185;SDS011;10252;48.792;8.582;2023-04-01T08:34:37;0.90;;;0.15;;
20185;SDS011;10252;48.792;8.582;2023-04-01T08:39:44;0.65;;;0.20;;
20185;SDS011;10252;48.792;8.582;2023-04-01T08:55:30;0.20;;;0.20;;
20185;SDS011;10252;48.792;8.582;2023-04-01T09:00:47;0.05;;;0.05;;
20185;SDS011;10252;48.792;8.582;2023-04-01T09:48:19;3.40;;;0.30;;
20185;SDS011;10252;48.792;8.582;2023-04-01T09:53:36;0.43;;;0.20;;
20185;SDS011;10252;48.792;8.582;2023-04-01T09:58:47;0.10;;;0.10;;
20185;SDS011;10252;48.792;8.582;2023-04-01T10:15:00;0.05;;;0.03;;
20185;SDS011;10252;48.792;8.582;2023-04-01T10:41:12;1.30;;;0.20;;
20185;SDS011;10252;48.792;8.582;2023-04-01T11:09:00;0.52;;;0.20;;
20185;SDS011;10252;48.792;8.582;2023-04-01T11:24:34;0.25;;;0.13;;
20185;SDS011;10252;48.792;8.582;2023-04-01T11:46:10;0.03;;;0.03;;
20185;SDS011;10252;48.792;8.582;2023-04-01T11:56:17;0.50;;;0.20;;
20185;SDS011;10252;48.792;8.582;2023-04-01T12:06:42;0.95;;;0.70;;
20185;SDS011;10252;48.792;8.582;2023-04-01T12:12:03;0.10;;;0.10;;
20185;SDS011;10252;48.792;8.582;2023-04-01T12:22:32;1.00;;;0.80;;
20185;SDS011;10252;48.792;8.582;2023-04-01T12:27:38;0.20;;;0.10;;
20185;SDS011;10252;48.792;8.582;2023-04-01T12:38:33;0.30;;;0.10;;
20185;SDS011;10252;48.792;8.582;2023-04-01T13:09:31;0.20;;;0.20;;
20185;SDS011;10252;48.792;8.582;2023-04-01T13:25:05;0.85;;;0.30;;
20185;SDS011;10252;48.792;8.582;2023-04-01T13:30:16;0.13;;;0.13;;
20185;SDS011;10252;48.792;8.582;2023-04-01T13:35:21;0.00;;;0.00;;
20185;SDS011;10252;48.792;8.582;2023-04-01T13:46:16;0.10;;;0.10;;
20185;SDS011;10252;48.792;8.582;2023-04-01T13:56:16;1.00;;;0.15;;
20185;SDS011;10252;48.792;8.582;2023-04-01T14:11:45;0.60;;;0.38;;
20185;SDS011;10252;48.792;8.582;2023-04-01T14:42:23;0.85;;;0.20;;
20185;SDS011;10252;48.792;8.582;2023-04-01T14:47:34;3.78;;;0.88;;
20185;SDS011;10252;48.792;8.582;2023-04-01T14:52:46;0.68;;;0.47;;
20185;SDS011;10252;48.792;8.582;2023-04-01T15:03:22;2.65;;;1.48;;
20185;SDS011;10252;48.792;8.582;2023-04-01T15:08:31;0.47;;;0.47;;
20185;SDS011;10252;48.792;8.582;2023-04-01T15:34:49;2.05;;;0.50;;
20185;SDS011;10252;48.792;8.582;2023-04-01T15:45:00;1.00;;;0.80;;
20185;SDS011;10252;48.792;8.582;2023-04-01T15:55:20;0.95;;;0.55;;
20185;SDS011;10252;48.792;8.582;2023-04-01T16:00:29;1.88;;;1.05;;
20185;SDS011;10252;48.792;8.582;2023-04-01T16:10:41;0.85;;;0.50;;
20185;SDS011;10252;48.792;8.582;2023-04-01T16:21:03;2.28;;;1.48;;
20185;SDS011;10252;48.792;8.582;2023-04-01T16:36:30;1.42;;;0.80;;
20185;SDS011;10252;48.792;8.582;2023-04-01T16:46:57;1.58;;;0.68;;
20185;SDS011;10252;48.792;8.582;2023-04-01T16:52:04;0.88;;;0.55;;
20185;SDS011;10252;48.792;8.582;2023-04-01T17:02:24;2.17;;;0.63;;
20185;SDS011;10252;48.792;8.582;2023-04-01T17:07:33;3.65;;;0.80;;
20185;SDS011;10252;48.792;8.582;2023-04-01T17:23:01;0.75;;;0.70;;
20185;SDS011;10252;48.792;8.582;2023-04-01T17:38:22;1.27;;;0.68;;
20185;SDS011;10252;48.792;8.582;2023-04-01T17:43:44;1.10;;;0.68;;
20185;SDS011;10252;48.792;8.582;2023-04-01T17:48:52;1.02;;;0.70;;
20185;SDS011;10252;48.792;8.582;2023-04-01T18:09:12;2.25;;;0.70;;
20185;SDS011;10252;48.792;8.582;2023-04-01T18:19:44;2.17;;;0.70;;
20185;SDS011;10252;48.792;8.582;2023-04-01T18:30:01;1.33;;;0.65;;
20185;SDS011;10252;48.792;8.582;2023-04-01T18:45:27;1.73;;;0.65;;
20185;SDS011;10252;48.792;8.582;2023-04-01T18:51:12;1.95;;;0.50;;
20185;SDS011;10252;48.792;8.582;2023-04-01T18:55:57;2.53;;;0.70;;
20185;SDS011;10252;48.792;8.582;2023-04-01T19:06:23;3.70;;;1.00;;
20185;SDS011;10252;48.792;8.582;2023-04-01T19:21:53;5.43;;;2.70;;
20185;SDS011;10252;48.792;8.582;2023-04-01T19:26:58;8.07;;;5.20;;
20185;SDS011;10252;48.792;8.582;2023-04-01T19:42:35;3.42;;;2.13;;
20185;SDS011;10252;48.792;8.582;2023-04-01T19:53:05;4.60;;;2.33;;
20185;SDS011;10252;48.792;8.582;2023-04-01T19:58:14;3.20;;;1.90;;
20185;SDS011;10252;48.792;8.582;2023-04-01T20:14:07;8.50;;;3.20;;
20185;SDS011;10252;48.792;8.582;2023-04-01T20:19:10;8.43;;;5.72;;
20185;SDS011;10252;48.792;8.582;2023-04-01T20:24:23;2.60;;;2.10;;
20185;SDS011;10252;48.792;8.582;2023-04-01T20:29:31;4.82;;;2.67;;
20185;SDS011;10252;48.792;8.582;2023-04-01T20:55:23;1.15;;;0.57;;
20185;SDS011;10252;48.792;8.582;2023-04-01T21:00:36;0.68;;;0.50;;
20185;SDS011;10252;48.792;8.582;2023-04-01T21:31:49;1.67;;;0.98;;
20185;SDS011;10252;48.792;8.582;2023-04-01T21:47:20;2.28;;;1.10;;
20185;SDS011;10252;48.792;8.582;2023-04-01T21:57:42;2.38;;;1.70;;
20185;SDS011;10252;48.792;8.582;2023-04-01T22:13:04;1.58;;;0.93;;
20185;SDS011;10252;48.792;8.582;2023-04-01T22:18:11;2.55;;;1.30;;
20185;SDS011;10252;48.792;8.582;2023-04-01T22:23:19;3.28;;;1.65;;
20185;SDS011;10252;48.792;8.582;2023-04-01T22:28:22;3.53;;;1.35;;
20185;SDS011;10252;48.792;8.582;2023-04-01T22:43:55;2.25;;;1.30;;
20185;SDS011;10252;48.792;8.582;2023-04-01T22:49:05;2.28;;;1.30;;
20185;SDS011;10252;48.792;8.582;2023-04-01T22:54:21;2.30;;;0.90;;
20185;SDS011;10252;48.792;8.582;2023-04-01T22:59:31;8.52;;;4.60;;
20185;SDS011;10252;48.792;8.582;2023-04-01T23:04:37;14.38;;;7.25;;
20185;SDS011;10252;48.792;8.582;2023-04-01T23:09:39;7.18;;;3.55;;
20185;SDS011;10252;48.792;8.582;2023-04-01T23:14:51;4.45;;;2.08;;
20185;SDS011;10252;48.792;8.582;2023-04-01T23:20:00;3.97;;;1.30;;
20185;SDS011;10252;48.792;8.582;2023-04-01T23:30:45;2.20;;;1.58;;
20185;SDS011;10252;48.792;8.582;2023-04-01T23:35:53;4.30;;;2.20;;
20185;SDS011;10252;48.792;8.582;2023-04-01T23:40:55;2.60;;;2.03;;
20185;SDS011;10252;48.792;8.582;2023-04-01T23:45:57;5.00;;;2.38;;
20185;SDS011;10252;48.792;8.582;2023-04-01T23:50:59;1.67;;;1.20;;
20185;SDS011;10252;48.792;8.582;2023-04-01T23:56:02;1.48;;;1.20;;
